createdAt,value
2022-08-20T00:01:31.849Z,92
2022-08-20T00:03:28.640Z,91
2022-08-20T00:05:31.739Z,91
2022-08-20T00:07:31.106Z,91
2022-08-20T00:09:29.858Z,91
2022-08-20T00:11:30.799Z,91
2022-08-20T00:13:28.142Z,91
2022-08-20T00:15:31.666Z,91
2022-08-20T00:17:28.934Z,91
2022-08-20T00:19:35.155Z,91
2022-08-20T00:21:31.596Z,91
2022-08-20T00:23:29.453Z,91
2022-08-20T00:25:32.270Z,91
2022-08-20T00:27:32.360Z,91
2022-08-20T00:29:31.686Z,91
2022-08-20T00:33:31.553Z,91
2022-08-20T00:35:31.634Z,91
2022-08-20T00:37:34.711Z,91
2022-08-20T00:39:31.521Z,91
2022-08-20T00:41:31.978Z,91
2022-08-20T00:43:31.624Z,91
2022-08-20T00:45:31.506Z,91
2022-08-20T00:47:31.514Z,91
2022-08-20T00:49:30.131Z,91
2022-08-20T00:51:31.880Z,91
2022-08-20T00:53:31.920Z,91
2022-08-20T00:55:31.876Z,91
2022-08-20T00:57:46.096Z,91
2022-08-20T00:59:34.834Z,91
2022-08-20T01:01:31.185Z,91
2022-08-20T01:03:34.702Z,91
2022-08-20T01:05:28.686Z,90
2022-08-20T01:07:32.095Z,91
2022-08-20T01:09:33.298Z,90
2022-08-20T01:11:31.370Z,90
2022-08-20T01:13:31.542Z,91
2022-08-20T01:17:31.563Z,90
2022-08-20T01:21:36.607Z,90
2022-08-20T01:23:31.329Z,90
2022-08-20T01:25:32.070Z,90
2022-08-20T01:27:31.775Z,90
2022-08-20T01:29:33.450Z,90
2022-08-20T01:31:32.950Z,90
2022-08-20T01:33:31.372Z,90
2022-08-20T01:35:31.960Z,90
2022-08-20T01:37:31.552Z,90
2022-08-20T01:39:34.678Z,90
2022-08-20T01:41:30.314Z,90
2022-08-20T01:43:35.254Z,90
2022-08-20T01:45:30.513Z,90
2022-08-20T01:47:31.593Z,90
2022-08-20T01:49:31.778Z,90
2022-08-20T01:51:31.472Z,90
2022-08-20T01:53:28.973Z,90
2022-08-20T01:55:31.582Z,90
2022-08-20T01:57:31.699Z,90
2022-08-20T01:59:31.692Z,90
2022-08-20T02:01:31.632Z,90
2022-08-20T02:03:36.625Z,90
2022-08-20T02:05:31.888Z,90
2022-08-20T02:07:29.900Z,90
2022-08-20T02:09:31.568Z,90
2022-08-20T02:11:29.842Z,91
2022-08-20T02:13:34.921Z,90
2022-08-20T02:15:35.055Z,91
2022-08-20T02:17:37.822Z,91
2022-08-20T02:19:32.376Z,90
2022-08-20T02:21:31.250Z,90
2022-08-20T02:23:31.378Z,90
2022-08-20T02:25:31.485Z,91
2022-08-20T02:27:38.579Z,90
2022-08-20T02:31:34.885Z,90
2022-08-20T02:33:31.429Z,90
2022-08-20T02:35:34.551Z,90
2022-08-20T02:37:30.758Z,90
2022-08-20T02:39:38.374Z,90
2022-08-20T02:41:31.522Z,90
2022-08-20T02:43:31.722Z,91
2022-08-20T02:45:30.140Z,91
2022-08-20T02:47:31.922Z,90
2022-08-20T02:49:31.757Z,90
2022-08-20T02:51:30.553Z,91
2022-08-20T02:53:31.514Z,91
2022-08-20T02:57:29.451Z,91
2022-08-20T02:59:30.912Z,91
2022-08-20T03:01:31.512Z,91
2022-08-20T03:03:31.107Z,90
2022-08-20T03:05:28.885Z,91
2022-08-20T03:07:34.507Z,91
2022-08-20T03:09:31.481Z,90
2022-08-20T03:11:32.571Z,90
2022-08-20T03:13:29.492Z,91
2022-08-20T03:15:28.568Z,91
2022-08-20T03:17:29.580Z,91
2022-08-20T03:19:31.918Z,90
2022-08-20T03:21:34.645Z,91
2022-08-20T03:23:31.719Z,91
2022-08-20T03:25:30.822Z,91
2022-08-20T03:27:36.701Z,91
2022-08-20T03:29:32.807Z,91
2022-08-20T03:31:29.375Z,90
2022-08-20T03:33:31.557Z,90
2022-08-20T03:35:28.029Z,90
2022-08-20T03:37:34.955Z,90
2022-08-20T03:39:29.870Z,91
2022-08-20T03:41:33.012Z,90
2022-08-20T03:43:31.513Z,90
2022-08-20T03:45:31.946Z,90
2022-08-20T03:49:30.226Z,90
2022-08-20T03:51:30.815Z,90
2022-08-20T03:53:30.478Z,90
2022-08-20T03:55:29.966Z,90
2022-08-20T03:57:31.511Z,90
2022-08-20T03:59:27.968Z,91
2022-08-20T04:01:36.914Z,90
2022-08-20T04:03:31.576Z,90
2022-08-20T04:05:31.290Z,90
2022-08-20T04:07:32.207Z,90
2022-08-20T04:09:34.841Z,90
2022-08-20T04:11:31.294Z,90
2022-08-20T04:15:31.179Z,90
2022-08-20T04:17:34.668Z,90
2022-08-20T04:19:37.701Z,90
2022-08-20T04:21:32.758Z,90
2022-08-20T04:23:34.056Z,91
2022-08-20T04:27:35.208Z,90
2022-08-20T04:29:35.635Z,90
2022-08-20T04:31:32.792Z,90
2022-08-20T04:33:33.259Z,90
2022-08-20T04:35:30.942Z,91
2022-08-20T04:37:36.867Z,90
2022-08-20T04:39:33.448Z,90
2022-08-20T04:41:28.512Z,90
2022-08-20T04:43:31.364Z,90
2022-08-20T04:45:31.263Z,90
2022-08-20T04:47:34.585Z,90
2022-08-20T04:49:31.589Z,90
2022-08-20T04:51:31.703Z,90
2022-08-20T04:53:32.039Z,90
2022-08-20T04:55:30.284Z,90
2022-08-20T04:57:30.266Z,90
2022-08-20T04:59:30.801Z,90
2022-08-20T05:01:31.521Z,90
2022-08-20T05:03:28.156Z,90
2022-08-20T05:05:31.858Z,89
2022-08-20T05:07:31.044Z,89
2022-08-20T05:09:25.371Z,89
2022-08-20T05:11:33.276Z,89
2022-08-20T05:13:34.957Z,89
2022-08-20T05:15:30.842Z,89
2022-08-20T05:17:31.361Z,89
2022-08-20T05:21:31.591Z,89
2022-08-20T05:23:30.049Z,89
2022-08-20T05:25:31.438Z,89
2022-08-20T05:27:31.523Z,89
2022-08-20T05:29:25.349Z,89
2022-08-20T05:31:31.073Z,89
2022-08-20T05:35:31.454Z,89
2022-08-20T05:37:34.678Z,89
2022-08-20T05:39:35.438Z,89
2022-08-20T05:41:31.471Z,89
2022-08-20T05:43:31.587Z,89
2022-08-20T05:45:28.356Z,89
2022-08-20T05:47:38.599Z,89
2022-08-20T05:49:32.601Z,89
2022-08-20T05:51:29.863Z,89
2022-08-20T05:53:31.559Z,89
2022-08-20T05:55:31.634Z,89
2022-08-20T05:57:28.827Z,89
2022-08-20T06:01:32.139Z,88
2022-08-20T06:03:33.154Z,88
2022-08-20T06:05:29.355Z,88
2022-08-20T06:09:33.179Z,88
2022-08-20T06:11:36.475Z,88
2022-08-20T06:13:28.187Z,88
2022-08-20T06:15:31.285Z,88
2022-08-20T06:17:31.653Z,88
2022-08-20T06:19:32.193Z,88
2022-08-20T06:21:32.000Z,88
2022-08-20T06:23:40.223Z,88
2022-08-20T06:25:31.016Z,88
2022-08-20T06:27:34.656Z,88
2022-08-20T06:31:31.502Z,88
2022-08-20T06:33:34.649Z,88
2022-08-20T06:35:31.405Z,87
2022-08-20T06:37:31.657Z,87
2022-08-20T06:41:35.868Z,87
2022-08-20T06:43:28.264Z,87
2022-08-20T06:47:31.599Z,87
2022-08-20T06:49:34.134Z,87
2022-08-20T06:53:33.023Z,87
2022-08-20T06:55:25.390Z,87
2022-08-20T06:57:33.444Z,87
2022-08-20T06:59:31.279Z,87
2022-08-20T07:01:31.702Z,87
2022-08-20T07:03:31.609Z,87
2022-08-20T07:05:28.197Z,87
2022-08-20T07:07:28.618Z,87
2022-08-20T07:11:30.339Z,86
2022-08-20T07:13:30.847Z,87
2022-08-20T07:15:32.649Z,86
2022-08-20T07:17:33.168Z,86
2022-08-20T07:19:27.806Z,86
2022-08-20T07:21:31.494Z,87
2022-08-20T07:23:31.877Z,86
2022-08-20T07:29:28.278Z,86
2022-08-20T07:31:31.393Z,86
2022-08-20T07:33:32.103Z,86
2022-08-20T07:35:31.767Z,86
2022-08-20T07:37:33.077Z,86
2022-08-20T07:39:31.250Z,86
2022-08-20T07:41:31.808Z,86
2022-08-20T07:43:32.099Z,86
2022-08-20T07:45:31.300Z,86
2022-08-20T07:49:31.583Z,86
2022-08-20T07:51:31.567Z,86
2022-08-20T07:53:32.362Z,86
2022-08-20T07:59:30.876Z,86
2022-08-20T08:01:31.573Z,86
2022-08-20T08:03:37.495Z,86
2022-08-20T08:05:33.405Z,86
2022-08-20T08:07:31.293Z,85
2022-08-20T08:11:31.473Z,85
2022-08-20T08:13:33.175Z,85
2022-08-20T08:15:29.803Z,84
2022-08-20T08:17:31.284Z,84
2022-08-20T08:19:31.489Z,84
2022-08-20T08:21:29.520Z,84
2022-08-20T08:23:31.906Z,84
2022-08-20T08:25:29.822Z,84
2022-08-20T08:27:30.296Z,85
2022-08-20T08:31:32.103Z,84
2022-08-20T08:35:27.958Z,84
2022-08-20T08:37:31.691Z,84
2022-08-20T08:39:34.977Z,84
2022-08-20T08:41:31.068Z,84
2022-08-20T08:43:31.882Z,84
2022-08-20T08:45:31.554Z,84
2022-08-20T08:47:31.115Z,84
2022-08-20T08:49:30.207Z,83
2022-08-20T08:51:31.406Z,83
2022-08-20T08:53:33.719Z,83
2022-08-20T08:59:46.218Z,84
2022-08-20T09:01:53.526Z,84
2022-08-20T09:03:31.101Z,84
2022-08-20T09:05:35.849Z,84
2022-08-20T09:07:32.689Z,84
2022-08-20T09:11:34.406Z,84
2022-08-20T09:13:33.122Z,84
2022-08-20T09:15:25.765Z,84
2022-08-20T09:17:32.373Z,84
2022-08-20T09:19:28.692Z,84
2022-08-20T09:21:33.209Z,84
2022-08-20T09:23:29.988Z,84
2022-08-20T09:25:28.239Z,84
2022-08-20T09:29:28.520Z,84
2022-08-20T09:31:34.942Z,85
2022-08-20T09:33:33.391Z,84
2022-08-20T09:35:28.451Z,84
2022-08-20T09:37:27.912Z,85
2022-08-20T09:39:31.503Z,84
2022-08-20T09:41:28.452Z,84
2022-08-20T09:43:34.632Z,84
2022-08-20T09:45:31.529Z,84
2022-08-20T09:47:36.443Z,84
2022-08-20T09:49:28.505Z,84
2022-08-20T09:51:29.940Z,83
2022-08-20T09:53:28.263Z,83
2022-08-20T09:55:30.294Z,83
2022-08-20T09:57:26.732Z,83
2022-08-20T09:59:31.412Z,83
2022-08-20T10:01:31.922Z,83
2022-08-20T10:05:34.670Z,82
2022-08-20T10:07:34.641Z,82
2022-08-20T10:09:33.422Z,82
2022-08-20T10:11:37.919Z,82
2022-08-20T10:13:31.542Z,82
2022-08-20T10:15:37.898Z,82
2022-08-20T10:19:32.792Z,82
2022-08-20T10:23:31.606Z,81
2022-08-20T10:25:31.808Z,82
2022-08-20T10:27:34.115Z,82
2022-08-20T10:31:37.852Z,82
2022-08-20T10:33:33.025Z,82
2022-08-20T10:37:31.864Z,82
2022-08-20T10:39:31.668Z,83
2022-08-20T10:43:25.465Z,83
2022-08-20T10:45:31.581Z,83
2022-08-20T10:47:32.131Z,83
2022-08-20T10:49:31.805Z,82
2022-08-20T10:51:32.471Z,82
2022-08-20T10:53:31.726Z,82
2022-08-20T10:55:31.576Z,81
2022-08-20T10:57:37.772Z,79
2022-08-20T10:59:31.609Z,80
2022-08-20T11:03:31.344Z,82
2022-08-20T11:07:49.615Z,81
2022-08-20T11:09:31.363Z,82
2022-08-20T11:13:31.562Z,80
2022-08-20T11:15:31.590Z,78
2022-08-20T11:17:37.182Z,82
2022-08-20T11:19:34.405Z,81
2022-08-20T11:21:31.792Z,82
2022-08-20T11:23:30.406Z,83
2022-08-20T11:25:33.207Z,84
2022-08-20T11:27:31.592Z,83
2022-08-20T11:29:31.018Z,84
2022-08-20T11:33:31.507Z,84
2022-08-20T11:35:43.346Z,84
2022-08-20T11:37:31.510Z,84
2022-08-20T11:39:31.454Z,84
2022-08-20T11:41:31.612Z,84
2022-08-20T11:45:27.986Z,82
2022-08-20T11:47:31.645Z,82
2022-08-20T11:49:29.852Z,83
2022-08-20T11:51:31.922Z,83
2022-08-20T11:53:28.619Z,83
2022-08-20T11:57:31.577Z,82
2022-08-20T11:59:34.460Z,83
2022-08-20T12:01:34.543Z,82
2022-08-20T12:05:27.912Z,83
2022-08-20T12:07:31.483Z,82
2022-08-20T12:09:31.563Z,82
2022-08-20T12:11:34.457Z,81
2022-08-20T12:15:27.806Z,81
2022-08-20T12:17:31.646Z,80
2022-08-20T12:19:37.976Z,80
2022-08-20T12:21:32.507Z,80
2022-08-20T12:23:31.950Z,80
2022-08-20T12:25:34.555Z,79
2022-08-20T12:27:34.300Z,81
2022-08-20T12:31:31.837Z,83
2022-08-20T12:33:31.971Z,83
2022-08-20T12:35:32.153Z,82
2022-08-20T12:37:31.396Z,82
2022-08-20T12:39:28.979Z,82
2022-08-20T12:41:31.522Z,82
2022-08-20T12:45:31.254Z,80
2022-08-20T12:47:31.787Z,80
2022-08-20T12:49:28.650Z,81
2022-08-20T12:51:31.426Z,80
2022-08-20T12:53:34.561Z,80
2022-08-20T12:55:31.622Z,80
2022-08-20T12:57:27.997Z,80
2022-08-20T12:59:28.783Z,79
2022-08-20T13:01:30.097Z,79
2022-08-20T13:03:40.189Z,80
2022-08-20T13:05:28.679Z,80
2022-08-20T13:07:28.043Z,80
2022-08-20T13:09:31.019Z,78
2022-08-20T13:11:31.620Z,77
2022-08-20T13:13:31.657Z,75
2022-08-20T13:15:34.804Z,78
2022-08-20T13:19:30.051Z,80
2022-08-20T13:21:28.751Z,80
2022-08-20T13:23:32.612Z,78
2022-08-20T13:25:27.981Z,79
2022-08-20T13:27:31.530Z,76
2022-08-20T13:29:32.078Z,80
2022-08-20T13:31:29.915Z,80
2022-08-20T13:33:31.599Z,81
2022-08-20T13:35:26.783Z,80
2022-08-20T13:37:31.399Z,81
2022-08-20T13:39:35.080Z,82
2022-08-20T13:45:31.594Z,81
2022-08-20T13:47:30.383Z,80
2022-08-20T13:49:33.856Z,81
2022-08-20T13:51:31.452Z,80
2022-08-20T13:53:34.884Z,81
2022-08-20T13:55:30.286Z,81
2022-08-20T13:57:31.646Z,80
2022-08-20T13:59:31.140Z,80
2022-08-20T14:01:31.106Z,80
2022-08-20T14:03:35.025Z,78
2022-08-20T14:05:30.207Z,77
2022-08-20T14:07:35.154Z,78
2022-08-20T14:09:28.498Z,79
2022-08-20T14:11:35.208Z,81
2022-08-20T14:13:31.161Z,82
2022-08-20T14:15:31.686Z,83
2022-08-20T14:17:30.082Z,83
2022-08-20T14:19:31.626Z,83
2022-08-20T14:21:31.825Z,82
2022-08-20T14:23:26.587Z,81
2022-08-20T14:25:38.051Z,81
2022-08-20T14:27:31.828Z,81
2022-08-20T14:29:35.209Z,82
2022-08-20T14:31:35.124Z,81
2022-08-20T14:33:29.926Z,81
2022-08-20T14:35:30.084Z,81
2022-08-20T14:39:27.858Z,81
2022-08-20T14:41:32.091Z,81
2022-08-20T14:43:28.253Z,81
2022-08-20T14:45:28.699Z,82
2022-08-20T14:47:31.510Z,80
2022-08-20T14:53:30.783Z,81
2022-08-20T14:55:31.670Z,81
2022-08-20T14:57:31.245Z,80
2022-08-20T14:59:31.336Z,81
2022-08-20T15:01:32.360Z,81
2022-08-20T15:05:25.528Z,82
2022-08-20T15:07:31.366Z,81
2022-08-20T15:09:28.772Z,81
2022-08-20T15:11:33.646Z,82
2022-08-20T15:13:28.230Z,81
2022-08-20T15:15:34.538Z,82
2022-08-20T15:17:35.774Z,82
2022-08-20T15:19:34.575Z,82
2022-08-20T15:21:30.320Z,82
2022-08-20T15:23:34.980Z,83
2022-08-20T15:25:36.033Z,83
2022-08-20T15:27:33.205Z,82
2022-08-20T15:29:32.407Z,83
2022-08-20T15:31:31.588Z,83
2022-08-20T15:33:31.652Z,83
2022-08-20T15:35:32.044Z,82
2022-08-20T15:39:31.607Z,83
2022-08-20T15:41:29.025Z,83
2022-08-20T15:43:30.932Z,83
2022-08-20T15:45:31.967Z,83
2022-08-20T15:47:28.803Z,84
2022-08-20T15:49:31.931Z,83
2022-08-20T15:51:33.417Z,84
2022-08-20T15:53:30.083Z,84
2022-08-20T15:55:34.663Z,83
2022-08-20T15:57:33.838Z,84
2022-08-20T15:59:33.179Z,84
2022-08-20T16:01:34.844Z,84
2022-08-20T16:03:31.702Z,84
2022-08-20T16:05:34.760Z,84
2022-08-20T16:07:33.199Z,84
2022-08-20T16:09:28.777Z,84
2022-08-20T16:11:31.673Z,84
2022-08-20T16:13:32.157Z,84
2022-08-20T16:15:31.849Z,84
2022-08-20T16:17:31.618Z,84
2022-08-20T16:19:31.608Z,84
2022-08-20T16:21:31.862Z,84
2022-08-20T16:25:31.666Z,83
2022-08-20T16:27:32.092Z,84
2022-08-20T16:29:31.133Z,84
2022-08-20T16:31:34.821Z,84
2022-08-20T16:33:31.625Z,84
2022-08-20T16:35:30.014Z,84
2022-08-20T16:37:31.312Z,84
2022-08-20T16:39:27.957Z,84
2022-08-20T16:41:31.951Z,84
2022-08-20T16:43:34.857Z,84
2022-08-20T16:45:33.638Z,84
2022-08-20T16:49:38.113Z,84
2022-08-20T16:51:33.277Z,85
2022-08-20T16:53:31.613Z,84
2022-08-20T16:57:28.028Z,85
2022-08-20T16:59:26.570Z,85
2022-08-20T17:01:34.601Z,84
2022-08-20T17:03:33.627Z,84
2022-08-20T17:05:28.002Z,84
2022-08-20T17:07:33.217Z,84
2022-08-20T17:09:31.612Z,84
2022-08-20T17:11:34.727Z,84
2022-08-20T17:13:34.641Z,84
2022-08-20T17:15:31.515Z,85
2022-08-20T17:17:31.615Z,84
2022-08-20T17:19:31.862Z,84
2022-08-20T17:21:33.995Z,85
2022-08-20T17:23:27.985Z,84
2022-08-20T17:25:28.295Z,84
2022-08-20T17:27:34.380Z,84
2022-08-20T17:29:31.204Z,83
2022-08-20T17:31:31.602Z,83
2022-08-20T17:33:37.514Z,84
2022-08-20T17:35:31.245Z,84
2022-08-20T17:37:32.707Z,84
2022-08-20T17:39:31.199Z,84
2022-08-20T17:41:31.123Z,83
2022-08-20T17:43:33.859Z,83
2022-08-20T17:45:30.911Z,83
2022-08-20T17:51:28.432Z,84
2022-08-20T17:53:34.210Z,84
2022-08-20T17:55:31.209Z,84
2022-08-20T17:57:30.970Z,84
2022-08-20T17:59:59.510Z,84
2022-08-20T18:01:33.929Z,84
2022-08-20T18:03:31.179Z,84
2022-08-20T18:05:34.271Z,84
2022-08-20T18:07:31.310Z,84
2022-08-20T18:11:28.442Z,85
2022-08-20T18:15:34.089Z,85
2022-08-20T18:17:31.157Z,85
2022-08-20T18:19:30.911Z,85
2022-08-20T18:21:31.104Z,85
2022-08-20T18:23:28.278Z,86
2022-08-20T18:25:34.078Z,86
2022-08-20T18:27:31.167Z,86
2022-08-20T18:29:29.574Z,86
2022-08-20T18:31:30.957Z,86
2022-08-20T18:33:32.110Z,86
2022-08-20T18:35:31.260Z,86
2022-08-20T18:37:35.940Z,86
2022-08-20T18:39:31.351Z,86
2022-08-20T18:41:31.359Z,86
2022-08-20T18:43:31.169Z,86
2022-08-20T18:45:31.774Z,86
2022-08-20T18:47:28.387Z,86
2022-08-20T18:49:26.620Z,86
2022-08-20T18:51:33.980Z,86
2022-08-20T18:53:35.062Z,86
2022-08-20T18:57:40.561Z,87
2022-08-20T18:59:34.914Z,86
2022-08-20T19:01:31.423Z,87
2022-08-20T19:03:31.060Z,87
2022-08-20T19:05:32.780Z,87
2022-08-20T19:07:43.326Z,87
2022-08-20T19:09:31.061Z,87
2022-08-20T19:11:31.204Z,87
2022-08-20T19:13:31.306Z,87
2022-08-20T19:15:31.266Z,87
2022-08-20T19:17:34.012Z,87
2022-08-20T19:19:34.147Z,87
2022-08-20T19:21:28.155Z,87
2022-08-20T19:23:27.923Z,88
2022-08-20T19:25:31.438Z,87
2022-08-20T19:27:31.108Z,88
2022-08-20T19:29:31.089Z,88
2022-08-20T19:31:29.552Z,87
2022-08-20T19:33:33.082Z,88
2022-08-20T19:35:28.477Z,88
2022-08-20T19:37:35.640Z,87
2022-08-20T19:41:30.359Z,86
2022-08-20T19:45:31.363Z,87
2022-08-20T19:47:31.027Z,87
2022-08-20T19:49:34.274Z,88
2022-08-20T19:51:31.225Z,88
2022-08-20T19:53:34.193Z,88
2022-08-20T19:55:28.377Z,88
2022-08-20T19:57:31.446Z,88
2022-08-20T19:59:27.998Z,87
2022-08-20T20:01:29.926Z,88
2022-08-20T20:03:31.168Z,88
2022-08-20T20:05:31.512Z,88
2022-08-20T20:07:30.873Z,88
2022-08-20T20:09:30.945Z,88
2022-08-20T20:11:28.261Z,88
2022-08-20T20:13:31.256Z,88
2022-08-20T20:15:30.927Z,89
2022-08-20T20:17:31.415Z,89
2022-08-20T20:19:32.728Z,89
2022-08-20T20:21:31.222Z,89
2022-08-20T20:23:38.667Z,89
2022-08-20T20:25:29.507Z,88
2022-08-20T20:29:31.289Z,88
2022-08-20T20:31:30.891Z,89
2022-08-20T20:33:31.119Z,89
2022-08-20T20:35:30.942Z,89
2022-08-20T20:37:42.691Z,89
2022-08-20T20:39:33.985Z,89
2022-08-20T20:41:31.012Z,89
2022-08-20T20:43:31.073Z,88
2022-08-20T20:45:30.939Z,89
2022-08-20T20:47:31.457Z,89
2022-08-20T20:49:32.779Z,89
2022-08-20T20:51:34.182Z,89
2022-08-20T20:53:51.446Z,89
2022-08-20T20:55:31.588Z,89
2022-08-20T20:57:37.804Z,89
2022-08-20T20:59:31.739Z,89
2022-08-20T21:03:28.131Z,89
2022-08-20T21:05:28.223Z,89
2022-08-20T21:07:29.928Z,89
2022-08-20T21:09:31.391Z,89
2022-08-20T21:11:34.576Z,89
2022-08-20T21:15:31.175Z,90
2022-08-20T21:17:31.465Z,89
2022-08-20T21:19:34.535Z,90
2022-08-20T21:21:31.313Z,89
2022-08-20T21:25:32.817Z,89
2022-08-20T21:27:31.164Z,90
2022-08-20T21:29:32.425Z,90
2022-08-20T21:31:29.571Z,89
2022-08-20T21:33:29.602Z,89
2022-08-20T21:35:28.277Z,89
2022-08-20T21:37:31.079Z,89
2022-08-20T21:39:30.936Z,89
2022-08-20T21:43:31.334Z,89
2022-08-20T21:45:28.726Z,90
2022-08-20T21:47:31.170Z,90
2022-08-20T21:49:29.618Z,89
2022-08-20T21:53:31.189Z,90
2022-08-20T21:55:33.986Z,90
2022-08-20T21:59:28.088Z,89
2022-08-20T22:01:31.074Z,89
2022-08-20T22:03:31.544Z,89
2022-08-20T22:05:31.063Z,89
2022-08-20T22:07:29.974Z,90
2022-08-20T22:09:31.443Z,89
2022-08-20T22:11:27.998Z,89
2022-08-20T22:13:30.861Z,89
2022-08-20T22:15:34.481Z,90
2022-08-20T22:17:27.973Z,90
2022-08-20T22:19:31.151Z,90
2022-08-20T22:21:29.957Z,89
2022-08-20T22:23:31.438Z,89
2022-08-20T22:25:31.268Z,89
2022-08-20T22:27:31.465Z,90
2022-08-20T22:29:36.160Z,89
2022-08-20T22:31:32.621Z,89
2022-08-20T22:33:34.406Z,89
2022-08-20T22:35:30.270Z,89
2022-08-20T22:37:31.340Z,89
2022-08-20T22:39:31.181Z,89
2022-08-20T22:41:31.486Z,89
2022-08-20T22:43:31.136Z,89
2022-08-20T22:47:31.602Z,89
2022-08-20T22:49:30.884Z,89
2022-08-20T22:51:31.112Z,89
2022-08-20T22:53:30.998Z,89
2022-08-20T22:55:31.623Z,89
2022-08-20T22:57:30.909Z,89
2022-08-20T22:59:34.220Z,90
2022-08-20T23:01:31.312Z,90
2022-08-20T23:03:39.344Z,89
2022-08-20T23:07:31.091Z,90
2022-08-20T23:11:31.399Z,90
2022-08-20T23:13:29.594Z,90
2022-08-20T23:15:31.863Z,90
2022-08-20T23:17:27.069Z,90
2022-08-20T23:19:34.060Z,90
2022-08-20T23:21:34.566Z,90
2022-08-20T23:25:31.143Z,90
2022-08-20T23:27:31.167Z,90
2022-08-20T23:29:31.281Z,90
2022-08-20T23:31:31.222Z,90
2022-08-20T23:33:31.171Z,90
2022-08-20T23:35:32.222Z,90
2022-08-20T23:37:32.167Z,90
2022-08-20T23:39:34.433Z,90
2022-08-20T23:43:30.975Z,90
2022-08-20T23:45:34.196Z,90
2022-08-20T23:47:31.240Z,90
2022-08-20T23:49:31.002Z,90
2022-08-20T23:51:31.220Z,90
2022-08-20T23:53:32.808Z,90
2022-08-20T23:55:31.120Z,90
2022-08-20T23:57:30.956Z,90
2022-08-20T23:59:31.041Z,90
